FIMP/MRU METAR and TAF weather

Enter ICAO airport designator
Station Type Date Time Source
FIMP METAR 2022/05/26 05:00 UTC NOAA

FIMP 260500Z 10007KT 9999 SCT020 26/20 Q1019


Station Type Date Time Source
FIMP Decoded METAR 2022/05/26 05:00 UTC NOAA

Plaisance Mauritius , Mauritius (FIMP) 20-26S 057-40E 57M
May 26, 2022 - 01:00 AM EDT / 2022.05.26 0500 UTC
Wind: from the E (100 degrees) at 8 MPH (7 KT):0
Visibility: greater than 7 mile(s):0
Sky conditions: partly cloudy
Temperature: 78 F (26 C)
Dew Point: 68 F (20 C)
Relative Humidity: 69%
Pressure (altimeter): 30.09 in. Hg (1019 hPa)
ob: FIMP 260500Z 10007KT 9999 SCT020 26/20 Q1019
cycle: 5

Station Type Date Time Source
FIMP TAF 2022/05/26 06:15 UTC NOAA

TAF COR TAF FIMP 260505Z 2606/2712 09008KT 9999 SCT018
BECMG 2618/2620 33003KT
BECMG 2704/2706 16008KT

Example: see airport list